Time;durP1;ratioP1;P1;durP2;ratioP2;P2;SDS_P1;SDS_P2;PMS_P1;PMS_P2;Temp;Humidity;BMP_temperature;BMP_pressure;BME280_temperature;BME280_humidity;BME280_pressure;Samples;Min_cycle;Max_cycle;Signal;HPM_P1;HPM_P2
2022/11/15 00:01:19;;;;;;;8.93;7.90;;;13.20;99.90;;;;;;5053634;28;20197;-77
2022/11/15 00:03:46;;;;;;;9.70;8.53;;;13.20;99.90;;;;;;5065785;28;20194;-77
2022/11/15 00:06:12;;;;;;;11.10;7.97;;;13.20;99.90;;;;;;5046227;28;20208;-77
2022/11/15 00:08:40;;;;;;;8.83;7.93;;;13.20;99.90;;;;;;5070676;28;20182;-77
2022/11/15 00:11:06;;;;;;;8.63;7.73;;;13.20;99.90;;;;;;5053963;28;20189;-77
2022/11/15 00:13:33;;;;;;;11.77;8.80;;;13.20;99.90;;;;;;5054653;28;20198;-77
2022/11/15 00:16:01;;;;;;;9.70;8.03;;;13.20;99.90;;;;;;5039581;28;20675;-77
2022/11/15 00:18:28;;;;;;;9.90;8.20;;;13.20;99.90;;;;;;5058320;28;20655;-77
2022/11/15 00:20:56;;;;;;;9.90;8.70;;;13.20;99.90;;;;;;5039806;28;20190;-77
2022/11/15 00:23:23;;;;;;;9.87;8.37;;;13.10;99.90;;;;;;5069245;28;20266;-77
2022/11/15 00:25:57;;;;;;;10.60;7.50;;;13.20;99.90;;;;;;5063428;28;20620;-77
2022/11/15 00:28:24;;;;;;;10.10;8.13;;;13.20;99.90;;;;;;5053354;28;20192;-77
2022/11/15 00:30:51;;;;;;;9.17;8.13;;;13.30;99.90;;;;;;5055014;28;20247;-77
2022/11/15 00:33:18;;;;;;;15.33;8.30;;;13.30;99.90;;;;;;5067657;28;20186;-77
2022/11/15 00:35:44;;;;;;;10.33;8.10;;;13.30;99.90;;;;;;5065527;28;20340;-77
2022/11/15 00:38:11;;;;;;;9.03;8.13;;;13.30;99.90;;;;;;5053426;28;20605;-78
2022/11/15 00:40:37;;;;;;;10.73;8.63;;;13.30;99.90;;;;;;5049109;28;20191;-77
2022/11/15 00:43:03;;;;;;;9.77;8.67;;;13.30;99.90;;;;;;5045677;28;20286;-77
2022/11/15 00:45:30;;;;;;;9.37;8.30;;;13.50;99.90;;;;;;5049223;28;20239;-78
2022/11/15 00:47:58;;;;;;;10.83;8.43;;;13.40;99.90;;;;;;5066858;28;20179;-78
2022/11/15 00:50:25;;;;;;;10.17;8.43;;;13.40;99.90;;;;;;5071954;28;20981;-77
2022/11/15 00:52:51;;;;;;;9.87;8.87;;;13.40;99.90;;;;;;5088910;28;20177;-77
2022/11/15 00:55:19;;;;;;;11.00;7.70;;;13.40;99.90;;;;;;5080018;28;20638;-77
2022/11/15 00:57:46;;;;;;;13.20;8.63;;;13.30;99.90;;;;;;5057958;28;20689;-77
2022/11/15 01:00:13;;;;;;;9.33;7.83;;;13.30;99.90;;;;;;5070409;28;20213;-77
2022/11/15 01:02:41;;;;;;;12.17;8.93;;;13.30;99.90;;;;;;5068168;28;20285;-77
2022/11/15 01:05:07;;;;;;;8.73;7.83;;;13.20;99.90;;;;;;5066292;28;20214;-77
2022/11/15 01:07:34;;;;;;;8.93;8.03;;;13.20;99.90;;;;;;5061328;28;20703;-77
2022/11/15 01:10:00;;;;;;;9.73;7.97;;;13.20;99.90;;;;;;5068233;28;20182;-77
2022/11/15 01:12:27;;;;;;;11.33;8.27;;;13.20;99.90;;;;;;5071080;28;20838;-77
2022/11/15 01:14:53;;;;;;;9.27;8.17;;;13.20;99.90;;;;;;5073471;28;20190;-78
2022/11/15 01:17:20;;;;;;;9.37;8.33;;;13.20;99.90;;;;;;5068647;28;20235;-77
2022/11/15 01:19:46;;;;;;;11.33;8.63;;;13.20;99.90;;;;;;5075342;28;20183;-77
2022/11/15 01:22:12;;;;;;;10.23;8.37;;;13.20;99.90;;;;;;5051371;28;20182;-77
2022/11/15 01:24:39;;;;;;;12.07;8.13;;;13.20;99.90;;;;;;5064720;28;20678;-78
2022/11/15 01:27:05;;;;;;;10.00;8.97;;;13.20;99.90;;;;;;5048928;28;20171;-78
2022/11/15 01:29:32;;;;;;;10.63;8.90;;;13.20;99.90;;;;;;5082974;28;20552;-78
2022/11/15 01:31:58;;;;;;;9.67;8.43;;;13.20;99.90;;;;;;5071119;28;20559;-78
2022/11/15 01:34:24;;;;;;;9.30;8.33;;;13.20;99.90;;;;;;5069020;28;20766;-78
2022/11/15 01:36:51;;;;;;;11.57;9.33;;;13.20;99.90;;;;;;5045056;28;20178;-77
2022/11/15 01:39:18;;;;;;;9.43;8.33;;;13.30;99.90;;;;;;5076166;28;20605;-78
2022/11/15 01:41:44;;;;;;;9.23;8.23;;;13.30;99.90;;;;;;5067393;28;20903;-78
2022/11/15 01:44:40;;;;;;;10.47;8.73;;;13.20;99.90;;;;;;5067494;28;20214;-78
2022/11/15 01:47:31;;;;;;;9.90;8.47;;;13.20;99.90;;;;;;5068182;28;20186;-77
2022/11/15 01:50:04;;;;;;;11.60;9.20;;;13.20;99.90;;;;;;5075044;28;20278;-78
2022/11/15 01:52:34;;;;;;;11.80;9.00;;;13.20;99.90;;;;;;5068100;28;20239;-78
2022/11/15 01:55:27;;;;;;;10.03;9.03;;;13.20;99.90;;;;;;5066951;28;20178;-78
2022/11/15 01:57:59;;;;;;;10.30;8.87;;;13.20;99.90;;;;;;5064767;28;20182;-78
2022/11/15 02:00:28;;;;;;;10.57;8.23;;;13.20;99.90;;;;;;5077734;28;20273;-78
2022/11/15 02:02:54;;;;;;;10.13;8.40;;;13.20;99.90;;;;;;5085158;28;20175;-77
2022/11/15 02:05:21;;;;;;;10.20;8.33;;;13.20;99.90;;;;;;5071707;28;20209;-77
2022/11/15 02:07:48;;;;;;;9.90;8.60;;;13.20;99.90;;;;;;5043409;28;20174;-77
2022/11/15 02:10:22;;;;;;;10.23;9.03;;;13.20;99.90;;;;;;5066198;28;20261;-77
2022/11/15 02:12:52;;;;;;;9.43;8.53;;;13.10;99.90;;;;;;5069865;28;20196;-77
2022/11/15 02:15:19;;;;;;;10.63;9.03;;;13.10;99.90;;;;;;5078303;28;20182;-77
2022/11/15 02:18:15;;;;;;;9.70;8.33;;;13.10;99.90;;;;;;5071090;28;20197;-77
2022/11/15 02:20:58;;;;;;;10.13;9.10;;;13.10;99.90;;;;;;5023921;28;20202;-77
2022/11/15 02:24:02;;;;;;;11.33;8.70;;;13.10;99.90;;;;;;5086106;28;20666;-78
2022/11/15 02:26:51;;;;;;;11.30;8.87;;;13.10;99.90;;;;;;5056205;28;20194;-77
2022/11/15 02:30:09;;;;;;;11.77;9.03;;;13.10;99.90;;;;;;5069527;28;20193;-77
2022/11/15 02:33:05;;;;;;;11.10;8.90;;;13.20;99.90;;;;;;5026780;28;20227;-77
2022/11/15 02:35:46;;;;;;;10.47;9.10;;;13.20;99.90;;;;;;5022196;28;20213;-78
2022/11/15 02:38:37;;;;;;;10.60;9.00;;;13.20;99.90;;;;;;5053927;28;20278;-78
2022/11/15 02:41:15;;;;;;;10.37;9.10;;;13.10;99.90;;;;;;5081779;28;20178;-77
2022/11/15 02:44:04;;;;;;;10.93;9.77;;;13.10;99.90;;;;;;5070502;28;20211;-77
2022/11/15 02:49:38;;;;;;;10.23;8.33;;;13.10;99.90;;;;;;5069896;28;20183;-77
2022/11/15 02:52:06;;;;;;;10.80;9.03;;;13.10;99.90;;;;;;5083720;28;20217;-77
2022/11/15 02:54:36;;;;;;;10.87;9.33;;;13.10;99.90;;;;;;5076087;28;20884;-77
2022/11/15 02:57:14;;;;;;;10.83;9.10;;;13.10;99.90;;;;;;5051854;28;20182;-76
2022/11/15 02:59:59;;;;;;;11.57;9.00;;;13.10;99.90;;;;;;5082643;28;20188;-76
2022/11/15 03:02:48;;;;;;;11.13;9.50;;;13.10;99.90;;;;;;5081072;28;20628;-76
2022/11/15 03:06:25;;;;;;;12.57;9.47;;;13.20;99.90;;;;;;5062938;28;20211;-76
2022/11/15 03:09:05;;;;;;;10.10;9.00;;;13.20;99.90;;;;;;5019190;28;20204;-76
2022/11/15 03:11:40;;;;;;;10.63;9.30;;;13.20;99.90;;;;;;5077485;28;20181;-76
2022/11/15 03:14:43;;;;;;;10.53;9.27;;;13.20;99.90;;;;;;5072117;28;20588;-76
2022/11/15 03:17:45;;;;;;;12.23;9.00;;;13.20;99.90;;;;;;5085747;28;20197;-76
2022/11/15 03:20:17;;;;;;;12.03;9.23;;;13.10;99.90;;;;;;5066281;28;20212;-76
2022/11/15 03:22:48;;;;;;;10.30;8.87;;;13.10;99.90;;;;;;5072392;28;20225;-76
2022/11/15 03:25:22;;;;;;;11.63;9.07;;;13.10;99.90;;;;;;5081006;28;20659;-76
2022/11/15 03:27:53;;;;;;;11.17;9.40;;;13.10;99.90;;;;;;5080802;28;20240;-76
2022/11/15 03:30:20;;;;;;;10.73;8.50;;;13.10;99.90;;;;;;5078764;28;20188;-76
2022/11/15 03:32:56;;;;;;;11.73;8.77;;;13.10;99.90;;;;;;5091839;28;20190;-76
2022/11/15 03:35:27;;;;;;;9.70;8.70;;;13.10;99.90;;;;;;5071881;28;20528;-76
2022/11/15 03:38:16;;;;;;;10.70;9.00;;;13.10;99.90;;;;;;5082566;28;20182;-76
2022/11/15 03:41:08;;;;;;;9.20;8.30;;;13.10;99.90;;;;;;5074058;28;20193;-76
2022/11/15 03:43:53;;;;;;;12.60;9.13;;;13.10;99.90;;;;;;5061182;28;20658;-76
2022/11/15 03:46:28;;;;;;;11.80;9.27;;;13.10;99.90;;;;;;5077216;28;20221;-76
2022/11/15 03:49:21;;;;;;;10.60;9.50;;;13.10;99.90;;;;;;5060494;28;20723;-75
2022/11/15 03:51:48;;;;;;;12.30;9.10;;;13.10;99.90;;;;;;5064241;28;20196;-76
2022/11/15 03:54:15;;;;;;;9.93;8.80;;;13.10;99.90;;;;;;5071219;28;20221;-76
2022/11/15 03:56:41;;;;;;;10.20;9.07;;;13.00;99.90;;;;;;5068802;28;20214;-76
2022/11/15 03:59:07;;;;;;;11.60;8.37;;;13.00;99.90;;;;;;5072019;28;21081;-76
2022/11/15 04:01:34;;;;;;;10.10;8.83;;;13.00;99.90;;;;;;5078606;28;20269;-76
2022/11/15 04:04:00;;;;;;;10.20;8.53;;;12.90;99.90;;;;;;5088937;28;20198;-76
2022/11/15 04:06:27;;;;;;;10.13;8.87;;;12.90;99.90;;;;;;5081278;28;20201;-76
2022/11/15 04:08:57;;;;;;;10.67;9.30;;;12.90;99.90;;;;;;5071269;28;20187;-75
2022/11/15 04:11:23;;;;;;;10.83;9.73;;;12.90;99.90;;;;;;5063822;28;20190;-76
2022/11/15 04:13:50;;;;;;;11.77;9.63;;;12.90;99.90;;;;;;5063521;28;20182;-76
2022/11/15 04:16:16;;;;;;;10.87;9.03;;;12.90;99.90;;;;;;5067834;28;20182;-76
2022/11/15 04:18:43;;;;;;;10.87;9.00;;;12.80;99.90;;;;;;5076505;28;20198;-76
2022/11/15 04:24:12;;;;;;;10.20;8.80;;;12.90;99.90;;;;;;5082977;28;20186;-75
2022/11/15 04:26:38;;;;;;;12.33;9.40;;;12.90;99.90;;;;;;5077377;28;20212;-76
2022/11/15 04:31:52;;;;;;;9.87;8.83;;;12.90;99.90;;;;;;5070281;28;20186;-76
2022/11/15 04:34:18;;;;;;;10.83;9.20;;;12.80;99.90;;;;;;5067903;28;20200;-76
2022/11/15 04:39:29;;;;;;;10.93;8.63;;;12.80;99.90;;;;;;5071095;28;20198;-76
2022/11/15 04:41:56;;;;;;;12.83;9.70;;;12.80;99.90;;;;;;5081192;28;20193;-76
2022/11/15 04:44:22;;;;;;;13.30;8.93;;;12.80;99.90;;;;;;5059658;28;20575;-76
2022/11/15 04:46:48;;;;;;;11.70;8.77;;;12.80;99.90;;;;;;5071265;28;20216;-76
2022/11/15 04:49:14;;;;;;;11.73;8.93;;;12.80;99.90;;;;;;5070267;28;20189;-76
2022/11/15 04:51:42;;;;;;;9.90;8.63;;;12.80;99.90;;;;;;5072488;28;20175;-76
2022/11/15 04:54:09;;;;;;;11.53;8.37;;;12.80;99.90;;;;;;5078471;28;20226;-75
2022/11/15 04:56:36;;;;;;;8.47;7.40;;;12.70;99.90;;;;;;5065813;28;20614;-76
2022/11/15 04:59:02;;;;;;;9.10;7.77;;;12.80;99.90;;;;;;5049266;28;20193;-76
2022/11/15 05:01:29;;;;;;;11.57;7.73;;;12.80;99.90;;;;;;5067588;28;20221;-76
2022/11/15 05:06:40;;;;;;;9.63;8.40;;;12.90;99.90;;;;;;5078030;28;20182;-76
2022/11/15 05:09:07;;;;;;;10.23;8.10;;;12.90;99.90;;;;;;5068007;28;20841;-75
2022/11/15 05:11:34;;;;;;;11.03;8.53;;;12.90;99.90;;;;;;5068911;28;20273;-76
2022/11/15 05:14:00;;;;;;;10.17;7.70;;;12.90;99.90;;;;;;5059907;28;20178;-76
2022/11/15 05:16:27;;;;;;;9.83;7.53;;;12.90;99.90;;;;;;5081297;28;20187;-76
2022/11/15 05:18:55;;;;;;;9.13;8.13;;;12.90;99.90;;;;;;5066412;28;20669;-75
2022/11/15 05:21:24;;;;;;;9.90;8.40;;;13.00;99.90;;;;;;5051614;28;20752;-76
2022/11/15 05:23:51;;;;;;;10.67;8.10;;;13.00;99.90;;;;;;5084777;28;20551;-76
2022/11/15 05:26:19;;;;;;;11.30;7.63;;;13.00;99.90;;;;;;5074643;28;20205;-76
2022/11/15 05:28:46;;;;;;;10.87;7.77;;;13.10;99.90;;;;;;5073847;28;20178;-76
2022/11/15 05:31:17;;;;;;;8.70;7.70;;;13.10;99.90;;;;;;5072293;28;20231;-75
2022/11/15 05:33:44;;;;;;;13.50;8.83;;;13.20;99.90;;;;;;5068416;28;20790;-75
2022/11/15 05:36:44;;;;;;;11.17;8.07;;;13.20;99.90;;;;;;5057833;28;20205;-76
2022/11/15 05:39:10;;;;;;;13.93;7.83;;;13.30;99.90;;;;;;5070187;28;20374;-76
2022/11/15 05:41:49;;;;;;;11.17;8.10;;;13.40;99.90;;;;;;5076296;28;20186;-76
2022/11/15 05:44:21;;;;;;;11.80;8.03;;;13.40;99.90;;;;;;5061208;28;20209;-76
2022/11/15 05:46:50;;;;;;;10.33;7.97;;;13.50;99.90;;;;;;5047551;28;20558;-76
2022/11/15 05:49:21;;;;;;;9.83;7.87;;;13.60;99.90;;;;;;5068284;28;20182;-76
2022/11/15 05:51:49;;;;;;;12.77;8.50;;;13.70;99.90;;;;;;5074111;28;20181;-76
2022/11/15 05:54:18;;;;;;;10.43;8.50;;;13.70;99.90;;;;;;5061696;28;20221;-76
2022/11/15 05:56:49;;;;;;;10.03;8.50;;;13.80;99.90;;;;;;5054375;28;20178;-76
2022/11/15 05:59:17;;;;;;;10.60;8.37;;;13.90;99.90;;;;;;5052867;28;20186;-76
2022/11/15 06:01:43;;;;;;;12.77;9.07;;;13.90;99.90;;;;;;5053743;28;20186;-76
2022/11/15 06:04:09;;;;;;;10.07;8.67;;;14.00;99.90;;;;;;5068470;28;20209;-76
2022/11/15 06:06:36;;;;;;;12.77;8.33;;;14.00;99.90;;;;;;5084648;28;20201;-76
2022/11/15 06:09:02;;;;;;;12.33;8.20;;;14.10;99.90;;;;;;5087388;28;20178;-76
2022/11/15 06:11:28;;;;;;;14.33;8.43;;;14.10;99.90;;;;;;5081161;28;20664;-76
2022/11/15 06:13:54;;;;;;;8.97;7.93;;;14.20;99.90;;;;;;5071840;28;20642;-76
2022/11/15 06:16:22;;;;;;;9.00;7.33;;;14.20;99.90;;;;;;5066063;28;20182;-76
2022/11/15 06:18:49;;;;;;;9.83;8.00;;;14.20;99.90;;;;;;5057731;28;20765;-76
2022/11/15 06:21:15;;;;;;;12.23;7.30;;;14.20;99.90;;;;;;5086789;28;20824;-76
2022/11/15 06:23:45;;;;;;;9.40;8.37;;;14.30;99.90;;;;;;5070473;28;20182;-76
2022/11/15 06:26:14;;;;;;;9.30;7.53;;;14.30;99.90;;;;;;5063889;28;20617;-75
2022/11/15 06:28:40;;;;;;;13.77;7.43;;;14.40;99.90;;;;;;5051096;28;20209;-74
2022/11/15 06:31:10;;;;;;;7.63;6.73;;;14.40;99.90;;;;;;5054041;28;20194;-74
2022/11/15 06:33:38;;;;;;;10.03;7.07;;;14.40;99.90;;;;;;5082687;28;20186;-74
2022/11/15 06:36:13;;;;;;;10.87;6.20;;;14.40;99.90;;;;;;5076342;28;20197;-74
2022/11/15 06:38:40;;;;;;;7.67;6.10;;;14.40;99.90;;;;;;5064402;28;20194;-74
2022/11/15 06:41:11;;;;;;;9.23;6.23;;;14.50;99.90;;;;;;5083428;28;20183;-74
2022/11/15 06:43:38;;;;;;;6.83;6.07;;;14.60;99.90;;;;;;5067394;28;20194;-74
2022/11/15 06:46:06;;;;;;;9.37;6.33;;;14.70;99.90;;;;;;5038535;28;20206;-76
2022/11/15 06:48:35;;;;;;;9.30;5.93;;;14.70;99.90;;;;;;5061672;28;20190;-76
2022/11/15 06:51:04;;;;;;;7.47;6.20;;;14.70;99.90;;;;;;5077227;28;20731;-74
2022/11/15 06:53:32;;;;;;;8.13;6.43;;;14.70;99.90;;;;;;5060523;28;20186;-76
2022/11/15 06:56:07;;;;;;;8.60;6.20;;;14.70;99.90;;;;;;5047115;28;20189;-76
2022/11/15 06:58:34;;;;;;;7.17;5.87;;;14.70;99.90;;;;;;5066594;28;20189;-74
2022/11/15 07:01:11;;;;;;;6.83;6.03;;;14.80;99.90;;;;;;5076678;28;20218;-74
2022/11/15 07:03:43;;;;;;;8.17;5.97;;;14.80;99.90;;;;;;5085964;28;20193;-74
2022/11/15 07:06:10;;;;;;;8.87;6.23;;;14.80;99.90;;;;;;5086662;28;20217;-74
2022/11/15 07:08:38;;;;;;;7.17;5.70;;;14.80;99.90;;;;;;5065806;28;20183;-74
2022/11/15 07:11:08;;;;;;;9.27;5.87;;;14.80;99.90;;;;;;5055955;28;20272;-74
2022/11/15 07:13:37;;;;;;;9.13;5.67;;;14.80;99.90;;;;;;5087496;28;20871;-73
2022/11/15 07:16:10;;;;;;;11.13;5.97;;;14.80;99.90;;;;;;5059563;28;20183;-74
2022/11/15 07:18:40;;;;;;;7.00;5.83;;;14.90;99.90;;;;;;5073421;28;20205;-76
2022/11/15 07:21:09;;;;;;;9.47;6.27;;;14.90;99.90;;;;;;5064022;28;20268;-76
2022/11/15 07:23:40;;;;;;;9.87;6.40;;;15.00;99.90;;;;;;5064972;28;20197;-74
2022/11/15 07:26:07;;;;;;;8.63;6.40;;;15.20;99.90;;;;;;5056292;28;20217;-74
2022/11/15 07:28:34;;;;;;;10.03;6.33;;;15.20;99.90;;;;;;5077073;28;20345;-74
2022/11/15 07:31:07;;;;;;;8.73;6.23;;;15.20;99.90;;;;;;5070777;28;20186;-76
2022/11/15 07:33:35;;;;;;;6.33;5.60;;;15.10;99.90;;;;;;5072285;28;20183;-74
2022/11/15 07:36:04;;;;;;;9.27;6.00;;;15.10;99.90;;;;;;5058942;28;20738;-74
2022/11/15 07:38:33;;;;;;;10.53;6.27;;;15.20;99.90;;;;;;5089053;28;20194;-74
2022/11/15 07:41:03;;;;;;;12.03;6.37;;;15.20;99.90;;;;;;5052658;28;20186;-74
2022/11/15 07:43:30;;;;;;;7.07;5.53;;;15.20;99.90;;;;;;5065365;28;20225;-74
2022/11/15 07:45:57;;;;;;;6.20;5.23;;;15.30;99.90;;;;;;5088087;28;20226;-74
2022/11/15 07:48:23;;;;;;;7.43;5.77;;;15.40;99.90;;;;;;5055986;28;20189;-76
2022/11/15 07:50:49;;;;;;;9.40;5.50;;;15.50;99.90;;;;;;5078215;28;21144;-76
2022/11/15 07:53:16;;;;;;;7.63;5.20;;;15.50;99.90;;;;;;5079409;28;20534;-74
2022/11/15 07:55:42;;;;;;;8.33;5.10;;;15.70;99.90;;;;;;5071753;28;20194;-74
2022/11/15 07:58:11;;;;;;;7.37;5.87;;;15.70;99.90;;;;;;5079964;28;20183;-74
2022/11/15 08:00:38;;;;;;;7.37;5.37;;;15.70;99.90;;;;;;5064599;28;20786;-74
2022/11/15 08:03:16;;;;;;;6.47;5.00;;;15.70;99.90;;;;;;5069492;28;20570;-74
2022/11/15 08:05:50;;;;;;;5.07;4.50;;;15.80;99.90;;;;;;5046802;28;20658;-75
2022/11/15 08:08:17;;;;;;;7.87;4.67;;;15.80;99.90;;;;;;5052870;28;20651;-74
2022/11/15 08:10:44;;;;;;;7.70;5.77;;;15.80;99.90;;;;;;5066099;28;20259;-74
2022/11/15 08:13:13;;;;;;;6.97;5.10;;;15.80;99.90;;;;;;5071990;28;20189;-74
2022/11/15 08:15:40;;;;;;;8.37;6.20;;;15.80;99.90;;;;;;5085952;28;20192;-74
2022/11/15 08:18:13;;;;;;;9.40;5.30;;;15.90;99.90;;;;;;5062180;28;21254;-74
2022/11/15 08:20:40;;;;;;;6.50;5.80;;;16.20;99.90;;;;;;5073206;28;20213;-74
2022/11/15 08:23:10;;;;;;;9.70;5.53;;;16.10;99.90;;;;;;5071579;28;20190;-74
2022/11/15 08:25:37;;;;;;;5.63;5.10;;;16.20;99.90;;;;;;5083664;28;20214;-74
2022/11/15 08:28:07;;;;;;;6.90;5.33;;;16.20;99.90;;;;;;5088129;28;20251;-74
2022/11/15 08:30:43;;;;;;;6.03;5.43;;;16.30;99.90;;;;;;5069347;28;20198;-74
2022/11/15 08:33:14;;;;;;;6.73;5.47;;;16.30;99.90;;;;;;5050361;28;20538;-74
2022/11/15 08:35:44;;;;;;;9.83;5.70;;;16.30;99.90;;;;;;5070924;28;20201;-74
2022/11/15 08:38:11;;;;;;;6.57;5.80;;;16.30;99.90;;;;;;5079871;28;20405;-74
2022/11/15 08:40:37;;;;;;;8.20;5.80;;;16.50;99.90;;;;;;5095756;28;20236;-74
2022/11/15 08:43:04;;;;;;;7.37;5.30;;;16.60;99.90;;;;;;5094996;28;20193;-74
2022/11/15 08:45:33;;;;;;;6.17;5.30;;;16.60;99.90;;;;;;5060712;28;20237;-76
2022/11/15 08:48:02;;;;;;;6.07;5.17;;;16.60;99.90;;;;;;5064244;28;20174;-76
2022/11/15 08:50:29;;;;;;;8.37;5.60;;;16.80;99.90;;;;;;5034851;28;20182;-73
2022/11/15 08:52:55;;;;;;;7.10;5.57;;;16.80;99.90;;;;;;5080034;28;20647;-76
2022/11/15 08:55:21;;;;;;;7.23;5.63;;;16.70;99.90;;;;;;5059347;28;20202;-76
2022/11/15 08:57:48;;;;;;;6.80;5.07;;;16.70;99.90;;;;;;5074527;28;20713;-76
2022/11/15 09:00:15;;;;;;;9.80;5.50;;;16.70;99.90;;;;;;5083502;28;20883;-77
2022/11/15 09:02:41;;;;;;;7.63;5.60;;;16.70;99.90;;;;;;5064698;28;20651;-76
2022/11/15 09:05:08;;;;;;;6.23;5.47;;;16.90;99.90;;;;;;5079265;28;20209;-76
2022/11/15 09:07:36;;;;;;;8.37;5.47;;;16.90;99.90;;;;;;5060543;28;20183;-76
2022/11/15 09:10:03;;;;;;;6.53;5.00;;;17.10;99.90;;;;;;5076010;28;20183;-76
2022/11/15 09:12:30;;;;;;;7.77;5.10;;;17.10;99.90;;;;;;5047309;28;20646;-76
2022/11/15 09:14:56;;;;;;;7.10;5.90;;;17.20;99.90;;;;;;5065646;28;20191;-76
2022/11/15 09:17:22;;;;;;;9.27;6.03;;;17.20;99.90;;;;;;5064396;28;20195;-76
2022/11/15 09:19:48;;;;;;;7.33;5.57;;;17.30;99.90;;;;;;5081166;28;20664;-76
2022/11/15 09:22:15;;;;;;;6.37;5.43;;;17.40;99.90;;;;;;5074491;28;20929;-76
2022/11/15 09:24:42;;;;;;;7.83;5.77;;;17.50;99.90;;;;;;5047271;28;20731;-76
2022/11/15 09:27:08;;;;;;;5.77;5.10;;;17.50;99.90;;;;;;5047043;28;20209;-76
2022/11/15 09:29:34;;;;;;;8.13;5.70;;;17.60;99.90;;;;;;5065608;28;20547;-76
2022/11/15 09:32:04;;;;;;;6.77;5.83;;;17.50;99.90;;;;;;5071683;28;20182;-76
2022/11/15 09:34:30;;;;;;;6.63;5.90;;;17.40;99.90;;;;;;5063105;28;20689;-76
2022/11/15 09:36:57;;;;;;;8.00;5.33;;;17.50;99.90;;;;;;5061376;28;20265;-76
2022/11/15 09:39:23;;;;;;;9.10;5.87;;;17.60;99.90;;;;;;5045913;28;20201;-76
2022/11/15 09:41:58;;;;;;;6.37;5.70;;;17.60;99.90;;;;;;5051234;28;20570;-76
2022/11/15 09:44:57;;;;;;;8.03;5.80;;;17.60;99.90;;;;;;5067703;28;20221;-76
2022/11/15 09:47:57;;;;;;;6.67;5.97;;;17.60;99.90;;;;;;5078498;28;20189;-76
2022/11/15 09:50:58;;;;;;;6.87;6.03;;;17.70;99.90;;;;;;5066327;28;20194;-76
2022/11/15 09:54:00;;;;;;;6.37;5.60;;;17.70;99.90;;;;;;5055925;28;20289;-76
2022/11/15 09:56:34;;;;;;;6.23;5.43;;;17.70;99.90;;;;;;5060429;28;20189;-76
2022/11/15 10:00:00;;;;;;;9.30;5.53;;;17.60;99.90;;;;;;5064381;28;20193;-76
2022/11/15 10:03:12;;;;;;;8.37;5.93;;;17.60;99.90;;;;;;5062605;28;20226;-76
2022/11/15 10:05:46;;;;;;;7.63;5.13;;;17.50;99.90;;;;;;5061569;28;20955;-76
2022/11/15 10:09:01;;;;;;;6.50;5.80;;;17.50;99.90;;;;;;5076069;28;20263;-76
2022/11/15 10:11:37;;;;;;;6.13;5.27;;;17.60;99.90;;;;;;5059185;28;20193;-76
2022/11/15 10:14:18;;;;;;;8.37;5.60;;;17.60;99.90;;;;;;5063860;28;20412;-76
2022/11/15 10:17:09;;;;;;;6.13;5.53;;;17.80;99.90;;;;;;5071513;28;20722;-76
2022/11/15 10:20:10;;;;;;;7.80;5.90;;;17.80;99.90;;;;;;5072499;28;21250;-76
2022/11/15 10:22:45;;;;;;;8.90;5.90;;;17.70;99.90;;;;;;5072533;28;20236;-76
2022/11/15 10:25:28;;;;;;;7.17;5.50;;;17.70;99.90;;;;;;5055570;28;20229;-76
2022/11/15 10:28:12;;;;;;;7.53;6.10;;;17.70;99.90;;;;;;5078297;28;20194;-76
2022/11/15 10:30:48;;;;;;;6.10;5.50;;;17.60;99.90;;;;;;5079383;28;20182;-77
2022/11/15 10:33:35;;;;;;;9.07;5.60;;;17.60;99.90;;;;;;5076347;28;20780;-76
2022/11/15 10:36:18;;;;;;;7.03;6.00;;;17.60;99.90;;;;;;5068858;28;20187;-76
2022/11/15 10:38:52;;;;;;;10.10;6.20;;;17.60;99.90;;;;;;5085880;28;20186;-76
2022/11/15 10:41:27;;;;;;;8.50;6.00;;;17.70;99.90;;;;;;5088246;28;20182;-76
2022/11/15 10:44:21;;;;;;;9.33;6.10;;;17.70;99.90;;;;;;5069181;28;20193;-76
2022/11/15 10:47:20;;;;;;;8.77;5.90;;;17.70;99.90;;;;;;5088264;28;20198;-76
2022/11/15 10:50:26;;;;;;;9.50;6.17;;;17.70;99.90;;;;;;5053362;28;20646;-76
2022/11/15 10:52:53;;;;;;;8.40;6.03;;;17.70;99.90;;;;;;5050553;28;20277;-77
2022/11/15 10:55:33;;;;;;;6.70;5.90;;;17.80;99.90;;;;;;5057975;28;20189;-76
2022/11/15 10:58:19;;;;;;;8.43;6.13;;;17.90;99.90;;;;;;5077465;28;20559;-76
2022/11/15 11:00:46;;;;;;;7.13;6.20;;;17.90;99.90;;;;;;5076014;28;20215;-76
2022/11/15 11:03:40;;;;;;;10.43;7.00;;;17.90;99.90;;;;;;5056877;28;20698;-76
2022/11/15 11:06:16;;;;;;;9.70;6.87;;;17.80;99.90;;;;;;5070778;28;20210;-76
2022/11/15 11:09:05;;;;;;;11.17;6.73;;;17.80;99.90;;;;;;5073423;28;20257;-76
2022/11/15 11:11:52;;;;;;;9.50;6.40;;;17.80;99.90;;;;;;5039123;28;20186;-76
2022/11/15 11:14:24;;;;;;;10.77;6.50;;;17.80;99.90;;;;;;5087189;28;20182;-76
2022/11/15 11:17:17;;;;;;;11.60;6.63;;;17.90;99.90;;;;;;5053790;28;20286;-76
2022/11/15 11:20:11;;;;;;;9.87;7.10;;;18.10;99.90;;;;;;5054548;28;20553;-76
2022/11/15 11:23:31;;;;;;;8.70;6.53;;;18.40;99.90;;;;;;5066960;28;20183;-75
2022/11/15 11:26:27;;;;;;;9.00;6.60;;;18.50;99.90;;;;;;5064646;28;20759;-75
2022/11/15 11:29:39;;;;;;;7.77;6.50;;;18.40;99.90;;;;;;5046844;28;20225;-75
2022/11/15 11:32:37;;;;;;;10.67;6.53;;;18.20;99.90;;;;;;5069956;28;20194;-75
2022/11/15 11:35:26;;;;;;;8.20;6.60;;;18.10;99.90;;;;;;5046347;28;20225;-75
2022/11/15 11:38:20;;;;;;;12.53;6.47;;;18.00;99.90;;;;;;5078447;28;20896;-75
2022/11/15 11:41:13;;;;;;;7.97;6.97;;;17.90;99.90;;;;;;5073395;28;20535;-75
2022/11/15 11:44:26;;;;;;;7.97;6.37;;;17.90;99.90;;;;;;5044213;28;20252;-75
2022/11/15 11:47:15;;;;;;;9.87;6.83;;;17.80;99.90;;;;;;5071246;28;20183;-75
2022/11/15 11:49:59;;;;;;;9.67;7.17;;;17.70;99.90;;;;;;5066049;28;20186;-75
2022/11/15 11:52:38;;;;;;;9.47;7.03;;;17.70;99.90;;;;;;5068801;28;20679;-75
2022/11/15 11:55:57;;;;;;;8.57;6.87;;;17.60;99.90;;;;;;5074727;28;20259;-75
2022/11/15 11:58:38;;;;;;;8.07;6.87;;;17.60;99.90;;;;;;5093267;28;20190;-75
2022/11/15 12:01:16;;;;;;;9.33;8.03;;;17.60;99.90;;;;;;5052847;28;20178;-75
2022/11/15 12:04:14;;;;;;;8.73;7.50;;;17.70;99.90;;;;;;5078208;28;20824;-75
2022/11/15 12:07:17;;;;;;;8.20;7.20;;;17.70;99.90;;;;;;5080400;28;20655;-75
2022/11/15 12:10:34;;;;;;;8.87;6.87;;;17.80;99.90;;;;;;5056177;28;20184;-75
2022/11/15 12:13:19;;;;;;;7.77;6.97;;;18.10;99.90;;;;;;5027576;28;20192;-75
2022/11/15 12:16:02;;;;;;;9.43;7.00;;;18.20;99.90;;;;;;5010646;28;20304;-75
2022/11/15 12:18:31;;;;;;;9.23;7.27;;;18.20;99.90;;;;;;5035881;28;20286;-75
2022/11/15 12:21:22;;;;;;;12.50;7.70;;;18.30;99.90;;;;;;5060356;28;20278;-75
2022/11/15 12:24:03;;;;;;;11.10;7.67;;;18.40;99.90;;;;;;5067651;28;20182;-75
2022/11/15 12:26:49;;;;;;;10.53;6.83;;;18.50;99.90;;;;;;5079270;28;20647;-74
2022/11/15 12:29:43;;;;;;;13.43;8.20;;;18.60;99.90;;;;;;5084006;28;20197;-75
2022/11/15 12:32:34;;;;;;;10.43;7.63;;;18.70;99.90;;;;;;5082308;28;20181;-75
2022/11/15 12:35:05;;;;;;;9.37;7.37;;;18.70;99.90;;;;;;5068909;28;20188;-75
2022/11/15 12:37:42;;;;;;;9.90;7.20;;;18.70;99.90;;;;;;5063151;28;20175;-75
2022/11/15 12:40:36;;;;;;;9.03;7.47;;;18.60;99.90;;;;;;5052141;28;20578;-75
2022/11/15 12:43:14;;;;;;;10.63;7.70;;;18.50;99.90;;;;;;5068517;28;20207;-75
2022/11/15 12:45:44;;;;;;;10.07;7.50;;;18.40;99.90;;;;;;5061367;28;20223;-75
2022/11/15 12:48:17;;;;;;;9.20;6.87;;;18.30;99.90;;;;;;5065035;28;20182;-75
2022/11/15 12:50:55;;;;;;;11.73;7.10;;;18.30;99.90;;;;;;5071140;28;20178;-75
2022/11/15 12:53:29;;;;;;;9.50;7.20;;;18.20;99.90;;;;;;5055212;28;20182;-75
2022/11/15 12:56:14;;;;;;;11.57;8.07;;;18.10;99.90;;;;;;5091318;28;20188;-74
2022/11/15 12:59:02;;;;;;;8.77;7.13;;;18.10;99.90;;;;;;5041511;28;20194;-75
2022/11/15 13:01:32;;;;;;;8.80;7.27;;;18.00;99.90;;;;;;5054219;28;20265;-75
2022/11/15 13:04:24;;;;;;;7.83;6.97;;;18.00;99.90;;;;;;5070005;28;20186;-75
2022/11/15 13:07:04;;;;;;;8.93;7.77;;;18.00;99.90;;;;;;5054480;28;20186;-75
2022/11/15 13:09:37;;;;;;;10.70;7.73;;;17.90;99.90;;;;;;5087964;28;20669;-75
2022/11/15 13:12:27;;;;;;;10.07;7.40;;;17.90;99.90;;;;;;5066499;28;20178;-75
2022/11/15 13:15:24;;;;;;;8.77;7.43;;;17.90;99.90;;;;;;5034680;28;20209;-75
2022/11/15 13:17:58;;;;;;;11.90;7.83;;;17.80;99.90;;;;;;5089343;28;20663;-75
2022/11/15 13:20:32;;;;;;;13.17;7.60;;;17.80;99.90;;;;;;5074742;28;20660;-75
2022/11/15 13:23:04;;;;;;;11.00;7.50;;;17.80;99.90;;;;;;5068610;28;20666;-75
2022/11/15 13:26:06;;;;;;;9.30;8.27;;;17.80;99.90;;;;;;5070406;28;20198;-75
2022/11/15 13:28:55;;;;;;;9.73;7.00;;;17.80;99.90;;;;;;5059058;28;20190;-75
2022/11/15 13:31:40;;;;;;;9.60;7.23;;;17.80;99.90;;;;;;5065076;28;20179;-75
2022/11/15 13:34:29;;;;;;;9.80;7.00;;;17.80;99.90;;;;;;5059128;28;20220;-75
2022/11/15 13:36:56;;;;;;;8.87;6.87;;;17.80;99.90;;;;;;5061784;28;20197;-75
2022/11/15 13:39:37;;;;;;;14.50;7.90;;;17.80;99.90;;;;;;5067733;28;20189;-75